createdAt,value
2022-09-06T00:08:54.848Z,64.82
2022-09-06T00:20:55.301Z,63.83
2022-09-06T00:32:55.741Z,62.32
2022-09-06T00:44:56.211Z,63.18
2022-09-06T00:56:56.648Z,63.60
2022-09-06T01:08:57.165Z,64.76
2022-09-06T01:20:57.574Z,61.78
2022-09-06T01:32:58.056Z,61.76
2022-09-06T01:44:58.507Z,61.82
2022-09-06T01:56:58.926Z,62.59
2022-09-06T02:08:59.356Z,66.19
2022-09-06T02:20:59.830Z,63.39
2022-09-06T02:33:00.294Z,63.66
2022-09-06T02:45:00.767Z,63.81
2022-09-06T02:57:01.178Z,68.26
2022-09-06T03:09:01.616Z,62.80
2022-09-06T03:21:02.063Z,73.24
2022-09-06T03:33:03.072Z,67.81
2022-09-06T03:45:03.011Z,63.44
2022-09-06T03:57:03.451Z,63.06
2022-09-06T04:09:03.928Z,62.80
2022-09-06T04:21:04.383Z,63.53
2022-09-06T04:33:04.842Z,64.83
2022-09-06T04:45:05.288Z,64.19
2022-09-06T04:57:05.767Z,65.06
2022-09-06T05:09:06.221Z,66.38
2022-09-06T05:21:06.650Z,65.91
2022-09-06T05:33:07.090Z,67.44
2022-09-06T05:45:07.556Z,64.12
2022-09-06T05:57:08.023Z,65.36
2022-09-06T06:09:08.481Z,64.11
2022-09-06T06:21:08.940Z,65.55
2022-09-06T06:33:09.363Z,65.83
2022-09-06T06:45:09.823Z,66.09
2022-09-06T06:57:10.275Z,66.71
2022-09-06T07:09:10.754Z,67.54
2022-09-06T07:21:38.561Z,62.06
2022-09-06T07:33:11.681Z,63.08
2022-09-06T07:45:12.103Z,59.51
2022-09-06T07:57:12.556Z,52.29
2022-09-06T08:09:13.028Z,48.36
2022-09-06T08:21:13.498Z,45.17
2022-09-06T08:33:13.953Z,44.13
2022-09-06T08:45:14.367Z,40.88
2022-09-06T08:57:14.848Z,39.73
2022-09-06T09:09:15.329Z,42.61
2022-09-06T09:21:15.767Z,40.23
2022-09-06T09:33:16.178Z,42.15
2022-09-06T09:45:16.633Z,42.05
2022-09-06T09:57:17.149Z,39.45
2022-09-06T10:09:19.188Z,39.05
2022-09-06T10:21:18.034Z,40.72
2022-09-06T10:33:18.467Z,38.48
2022-09-06T10:45:18.969Z,39.19
2022-09-06T11:09:19.837Z,38.14
2022-09-06T11:21:20.339Z,35.46
2022-09-06T11:33:20.811Z,37.17
2022-09-06T11:45:21.237Z,35.85
2022-09-06T11:57:21.727Z,38.51
2022-09-06T12:09:22.152Z,36.55
2022-09-06T12:21:22.619Z,34.34
2022-09-06T12:33:23.067Z,41.87
2022-09-06T12:45:27.175Z,34.87
2022-09-06T12:57:23.976Z,41.20
2022-09-06T13:09:24.465Z,36.14
2022-09-06T13:21:24.903Z,38.54
2022-09-06T13:33:25.360Z,36.09
2022-09-06T13:45:25.808Z,40.17
2022-09-06T13:57:26.306Z,36.84
2022-09-06T14:09:26.736Z,39.86
2022-09-06T14:21:27.182Z,41.37
2022-09-06T14:33:27.642Z,38.83
2022-09-06T14:45:28.124Z,34.88
2022-09-06T14:57:28.774Z,34.74
2022-09-06T15:09:29.000Z,40.86
2022-09-06T15:21:29.435Z,42.73
2022-09-06T15:33:30.150Z,45.88
2022-09-06T15:45:30.368Z,49.81
2022-09-06T15:57:30.829Z,44.81
2022-09-06T16:09:31.254Z,50.29
2022-09-06T16:21:31.780Z,53.39
2022-09-06T16:33:32.215Z,60.71
2022-09-06T16:45:32.661Z,73.33
2022-09-06T16:57:33.083Z,66.75
2022-09-06T17:09:33.596Z,66.01
2022-09-06T17:21:34.041Z,67.11
2022-09-06T17:33:34.499Z,66.96
2022-09-06T17:45:34.989Z,67.05
2022-09-06T17:57:35.434Z,67.21
2022-09-06T18:09:35.812Z,68.17
2022-09-06T18:21:36.334Z,68.45
2022-09-06T18:33:36.771Z,71.82
2022-09-06T18:45:37.271Z,70.15
2022-09-06T18:57:37.667Z,65.34
2022-09-06T19:09:38.175Z,66.62
2022-09-06T19:21:41.982Z,69.62
2022-09-06T19:33:39.068Z,67.21
2022-09-06T19:45:39.485Z,66.36
2022-09-06T19:57:39.949Z,68.39
2022-09-06T20:09:40.424Z,65.36
2022-09-06T20:21:40.879Z,64.72
2022-09-06T20:33:43.748Z,65.12
2022-09-06T20:45:41.746Z,66.95
2022-09-06T20:57:42.231Z,63.98
2022-09-06T21:09:42.698Z,65.15
2022-09-06T21:21:43.135Z,65.07
2022-09-06T21:33:43.603Z,67.21
2022-09-06T21:45:44.067Z,66.46
2022-09-06T21:57:44.536Z,65.10
2022-09-06T22:09:44.946Z,67.84
2022-09-06T22:21:45.425Z,69.19
2022-09-06T22:33:45.884Z,65.84
2022-09-06T22:45:51.212Z,72.65
2022-09-06T22:57:46.784Z,71.54
2022-09-06T23:09:47.224Z,67.77
2022-09-06T23:21:47.633Z,75.96
2022-09-06T23:33:48.109Z,69.97
2022-09-06T23:45:48.613Z,69.70
2022-09-06T23:57:49.065Z,70.23
